This is the latest recevied weather packets stored in our database for station/object KQ4HDO. If no packets are shown the sender has not sent any weather packets the latest 10 day(s).
| Time | Temp. | Humidity | Pressure | Rain* | Wind** | Luminosity | Snow |
|---|---|---|---|---|---|---|---|
| 1777680303 | 16.11° C | 38% | 1014.5 hPa | 0 mm | - | - | - |
| 1777680003 | 16.11° C | 38% | 1014.5 hPa | 0 mm | - | - | - |
| 1777679237 | 16.67° C | 39% | 1014.5 hPa | 0 mm | - | - | - |
| 1777674604 | 17.22° C | 36% | 1014.7 hPa | 0 mm | - | - | - |
| 1777671603 | 17.22° C | 35% | 1015.4 hPa | 0 mm | - | - | - |
| 1777670703 | 17.22° C | 36% | 1015.5 hPa | 0 mm | - | - | - |
| 1777670103 | 16.67° C | 37% | 1015.7 hPa | 0 mm | - | - | - |
| 1777668903 | 16.11° C | 37% | 1016.3 hPa | 0 mm | - | - | - |
| 1777668603 | 16.11° C | 38% | 1016.5 hPa | 0 mm | - | - | - |
| 1777667103 | 17.78° C | 33% | 1016.7 hPa | 0 mm | - | - | - |
| 1777665137 | 16.67° C | 35% | 1017 hPa | 0 mm | - | - | - |
| 1777664703 | 15.56° C | 37% | 1017.1 hPa | 0 mm | - | - | - |
| 1777664238 | 16.67° C | 34% | 1017.1 hPa | 0 mm | - | - | - |
| 1777663503 | 16.67° C | 35% | 1017.2 hPa | 0 mm | - | - | - |
| 1777662903 | 16.11° C | 36% | 1017.2 hPa | 0 mm | - | - | - |
| 1777662003 | 16.67° C | 34% | 1017.1 hPa | 0 mm | - | - | - |
| 1777661703 | 16.67° C | 36% | 1017.2 hPa | 0 mm | - | - | - |
| 1777660803 | 16.67° C | 33% | 1017.4 hPa | 0 mm | - | - | - |
| 1777658403 | 15° C | 38% | 1017.5 hPa | 0 mm | - | - | - |
| 1777656003 | 15° C | 39% | 1017.8 hPa | 0 mm | - | - | - |
| 1777655237 | 15° C | 38% | 1017.7 hPa | 0 mm | - | - | - |
| 1777654503 | 15° C | 41% | 1017.7 hPa | 0 mm | - | - | - |
| 1777652703 | 15° C | 45% | 1017.7 hPa | 0 mm | - | - | - |
| 1777651038 | 13.89° C | 46% | 1017.9 hPa | 0 mm | - | - | - |
| 1777647903 | 12.22° C | 49% | 1018.1 hPa | 0 mm | - | - | - |
* Rain latest hour (hover to see other rain measurements)
** Current wind speed in m/s (hover to see current wind gust speed)